createdAt,value
2019-04-28T00:00:11.423Z,8.61
2019-04-28T00:05:18.923Z,8.65
2019-04-28T00:10:26.612Z,8.16
2019-04-28T00:15:34.548Z,8.82
2019-04-28T00:20:42.349Z,8.71
2019-04-28T00:25:51.465Z,8.76
2019-04-28T00:30:59.259Z,8.90
2019-04-28T00:36:07.232Z,9.03
2019-04-28T00:41:14.864Z,9.39
2019-04-28T00:46:22.737Z,9.62
2019-04-28T00:51:31.363Z,9.15
2019-04-28T00:56:39.199Z,9.32
2019-04-28T01:01:47.044Z,8.96
2019-04-28T01:06:55.028Z,8.88
2019-04-28T01:12:03.595Z,9.25
2019-04-28T01:17:11.450Z,9.35
2019-04-28T01:22:20.142Z,9.59
2019-04-28T01:27:27.749Z,8.95
2019-04-28T01:32:35.358Z,9.04
2019-04-28T01:37:43.183Z,10.17
2019-04-28T01:42:50.685Z,9.23
2019-04-28T01:48:00.479Z,9.15
2019-04-28T01:52:59.770Z,9.60
2019-04-28T01:58:09.485Z,9.93
2019-04-28T02:03:20.586Z,10.02
2019-04-28T02:08:20.169Z,10.45
2019-04-28T02:13:29.715Z,11.29
2019-04-28T02:18:37.395Z,11.12
2019-04-28T02:23:44.959Z,10.99
2019-04-28T02:28:52.697Z,10.92
2019-04-28T02:34:00.766Z,11.16
2019-04-28T02:39:10.591Z,11.25
2019-04-28T02:44:23.070Z,10.29
2019-04-28T02:49:21.465Z,9.88
2019-04-28T02:54:30.504Z,9.39
2019-04-28T02:59:41.058Z,8.83
2019-04-28T03:04:41.726Z,8.64
2019-04-28T03:09:52.100Z,8.74
2019-04-28T03:14:50.885Z,8.99
2019-04-28T03:20:00.905Z,8.56
2019-04-28T03:25:00.910Z,7.76
2019-04-28T03:30:08.243Z,7.51
2019-04-28T03:35:15.760Z,7.47
2019-04-28T03:40:23.229Z,8.25
2019-04-28T03:45:30.778Z,7.85
2019-04-28T03:50:41.208Z,7.82
2019-04-28T03:55:41.384Z,7.99
2019-04-28T04:00:40.859Z,7.98
2019-04-28T04:05:50.892Z,8.29
2019-04-28T04:10:50.248Z,8.00
2019-04-28T04:15:58.028Z,7.51
2019-04-28T04:21:05.534Z,8.06
2019-04-28T04:26:13.048Z,7.92
2019-04-28T04:31:20.556Z,7.40
2019-04-28T04:36:28.030Z,7.78
2019-04-28T04:41:35.704Z,7.46
2019-04-28T04:46:44.335Z,8.18
2019-04-28T04:51:51.909Z,8.32
2019-04-28T04:57:00.031Z,9.09
2019-04-28T05:02:19.230Z,9.72
2019-04-28T05:07:07.872Z,10.16
2019-04-28T05:12:16.048Z,9.42
2019-04-28T05:17:23.769Z,9.67
2019-04-28T05:22:31.586Z,10.02
2019-04-28T05:27:40.171Z,10.40
2019-04-28T05:32:53.699Z,10.67
2019-04-28T05:37:55.317Z,10.28
2019-04-28T05:43:02.983Z,10.44
2019-04-28T05:48:11.370Z,9.67
2019-04-28T05:53:19.312Z,9.22
2019-04-28T05:58:19.840Z,9.01
2019-04-28T06:03:27.746Z,9.25
2019-04-28T06:08:40.656Z,8.97
2019-04-28T06:13:40.070Z,8.56
2019-04-28T06:18:47.385Z,8.50
2019-04-28T06:23:55.305Z,8.59
2019-04-28T06:29:03.105Z,8.34
2019-04-28T06:34:12.619Z,8.87
2019-04-28T06:39:20.268Z,8.32
2019-04-28T06:44:28.163Z,8.65
2019-04-28T06:49:35.952Z,8.27
2019-04-28T06:54:43.708Z,8.05
2019-04-28T06:59:51.252Z,8.78
2019-04-28T07:05:02.315Z,8.54
2019-04-28T07:09:59.717Z,9.48
2019-04-28T07:15:07.687Z,8.32
2019-04-28T07:20:15.960Z,8.73
2019-04-28T07:25:23.881Z,9.23
2019-04-28T07:30:32.311Z,8.91
2019-04-28T07:35:40.164Z,9.30
2019-04-28T07:40:47.875Z,8.52
2019-04-28T07:45:55.850Z,8.93
2019-04-28T07:51:03.512Z,9.07
2019-04-28T07:56:11.319Z,9.29
2019-04-28T08:01:18.845Z,10.17
2019-04-28T08:06:27.102Z,11.31
2019-04-28T08:11:34.262Z,10.31
2019-04-28T08:16:41.953Z,12.62
2019-04-28T08:21:49.616Z,10.00
2019-04-28T08:26:57.321Z,9.42
2019-04-28T08:32:04.891Z,10.67
2019-04-28T08:37:12.470Z,10.67
2019-04-28T08:42:19.993Z,11.13
2019-04-28T08:47:27.721Z,9.71
2019-04-28T08:52:35.305Z,11.97
2019-04-28T08:57:42.997Z,12.47
2019-04-28T09:02:50.604Z,11.12
2019-04-28T09:07:58.217Z,11.05
2019-04-28T09:13:05.900Z,11.14
2019-04-28T09:18:13.826Z,11.85
2019-04-28T09:23:21.377Z,10.18
2019-04-28T09:28:29.116Z,8.74
2019-04-28T09:33:36.776Z,6.90
2019-04-28T09:38:44.498Z,7.22
2019-04-28T09:43:52.706Z,6.58
2019-04-28T09:49:00.425Z,6.09
2019-04-28T09:54:08.332Z,6.14
2019-04-28T09:59:16.124Z,6.28
2019-04-28T10:04:24.235Z,5.65
2019-04-28T10:09:33.710Z,5.64
2019-04-28T10:14:41.928Z,6.44
2019-04-28T10:19:49.566Z,5.44
2019-04-28T10:24:57.409Z,5.17
2019-04-28T10:30:05.349Z,4.76
2019-04-28T10:35:13.725Z,4.76
2019-04-28T10:40:21.971Z,4.28
2019-04-28T10:45:32.705Z,4.79
2019-04-28T10:50:30.384Z,5.37
2019-04-28T10:55:37.977Z,5.07
2019-04-28T11:00:45.637Z,6.04
2019-04-28T11:05:59.645Z,6.12
2019-04-28T11:10:57.525Z,6.95
2019-04-28T11:16:05.314Z,6.23
2019-04-28T11:21:13.035Z,5.83
2019-04-28T11:26:20.532Z,5.79
2019-04-28T11:31:28.362Z,9.29
2019-04-28T11:36:36.135Z,4.92
2019-04-28T11:41:44.149Z,4.88
2019-04-28T11:46:51.845Z,7.69
2019-04-28T11:51:59.477Z,5.76
2019-04-28T11:57:07.150Z,4.76
2019-04-28T12:02:17.313Z,4.66
2019-04-28T12:07:15.271Z,7.17
2019-04-28T12:12:23.091Z,4.78
2019-04-28T12:17:30.998Z,4.67
2019-04-28T12:22:38.582Z,7.24
2019-04-28T12:27:47.093Z,5.72
2019-04-28T12:32:55.541Z,16.03
2019-04-28T12:38:03.246Z,6.39
2019-04-28T12:43:10.907Z,4.72
2019-04-28T12:48:18.810Z,4.60
2019-04-28T12:53:26.502Z,5.10
2019-04-28T12:58:34.095Z,4.75
2019-04-28T13:03:41.833Z,4.12
2019-04-28T13:08:49.500Z,4.19
2019-04-28T13:13:57.822Z,3.81
2019-04-28T13:19:05.513Z,3.53
2019-04-28T13:24:13.088Z,3.13
2019-04-28T13:29:20.723Z,2.85
2019-04-28T13:34:28.422Z,4.50
2019-04-28T13:39:36.107Z,3.00
2019-04-28T13:44:44.536Z,2.68
2019-04-28T13:50:49.048Z,3.88
2019-04-28T13:54:56.916Z,3.09
2019-04-28T14:00:06.823Z,2.57
2019-04-28T14:05:15.585Z,2.53
2019-04-28T14:10:35.524Z,4.81
2019-04-28T14:15:34.602Z,5.18
2019-04-28T14:20:42.473Z,8.27
2019-04-28T14:26:10.432Z,4.91
2019-04-28T14:31:01.492Z,3.00
2019-04-28T14:35:59.528Z,3.18
2019-04-28T14:41:07.280Z,10.57
2019-04-28T14:46:14.960Z,2.85
2019-04-28T14:51:22.534Z,4.82
2019-04-28T14:56:30.254Z,3.13
2019-04-28T15:01:40.164Z,2.80
2019-04-28T15:06:55.472Z,3.32
2019-04-28T15:11:53.872Z,3.13
2019-04-28T15:17:01.675Z,2.85
2019-04-28T15:22:09.823Z,2.85
2019-04-28T15:27:23.878Z,3.07
2019-04-28T15:32:22.673Z,5.22
2019-04-28T15:37:30.335Z,4.64
2019-04-28T15:42:38.109Z,3.29
2019-04-28T15:47:45.615Z,2.84
2019-04-28T15:52:53.112Z,3.29
2019-04-28T15:58:00.727Z,3.13
2019-04-28T16:03:08.364Z,2.86
2019-04-28T16:08:15.862Z,2.79
2019-04-28T16:13:23.518Z,2.68
2019-04-28T16:18:30.997Z,3.13
2019-04-28T16:23:38.621Z,2.44
2019-04-28T16:28:46.251Z,2.56
2019-04-28T16:33:54.050Z,2.44
2019-04-28T16:39:02.240Z,3.62
2019-04-28T16:44:12.075Z,2.47
2019-04-28T16:49:19.672Z,2.89
2019-04-28T16:54:37.215Z,4.72
2019-04-28T16:59:35.083Z,2.88
2019-04-28T17:04:43.352Z,2.77
2019-04-28T17:09:50.976Z,2.71
2019-04-28T17:14:58.733Z,3.43
2019-04-28T17:20:06.238Z,2.75
2019-04-28T17:25:14.355Z,3.56
2019-04-28T17:30:22.099Z,2.80
2019-04-28T17:35:29.708Z,3.57
2019-04-28T17:40:37.673Z,3.05
2019-04-28T17:45:45.406Z,4.10
2019-04-28T17:50:53.022Z,4.34
2019-04-28T17:56:00.643Z,2.91
2019-04-28T18:01:08.241Z,3.92
2019-04-28T18:06:17.851Z,3.14
2019-04-28T18:11:25.671Z,3.60
2019-04-28T18:16:33.585Z,3.22
2019-04-28T18:21:41.780Z,2.82
2019-04-28T18:26:49.760Z,2.90
2019-04-28T18:31:57.368Z,3.21
2019-04-28T18:37:05.447Z,4.04
2019-04-28T18:42:14.820Z,3.96
2019-04-28T18:47:22.586Z,3.88
2019-04-28T18:52:30.650Z,3.94
2019-04-28T18:57:38.469Z,4.01
2019-04-28T19:02:46.822Z,4.36
2019-04-28T19:07:55.296Z,4.45
2019-04-28T19:13:03.240Z,4.61
2019-04-28T19:18:10.827Z,4.75
2019-04-28T19:23:19.117Z,4.42
2019-04-28T19:28:26.899Z,3.82
2019-04-28T19:33:34.665Z,4.28
2019-04-28T19:38:42.688Z,4.39
2019-04-28T19:43:50.543Z,4.28
2019-04-28T19:49:00.394Z,4.18
2019-04-28T19:59:16.877Z,4.23
2019-04-28T20:04:24.541Z,5.04
2019-04-28T20:09:32.662Z,4.17
2019-04-28T20:14:40.358Z,5.06
2019-04-28T20:24:55.753Z,4.65
2019-04-28T20:30:03.510Z,4.59
